This is the latest recevied weather packets stored in our database for station/object N4CRH-13. If no packets are shown the sender has not sent any weather packets the latest 10 day(s).
| Time | Temp. | Humidity | Pressure | Rain* | Wind** | Luminosity | Snow |
|---|---|---|---|---|---|---|---|
| 1778145729 | -1.67° C | 82% | 1295.7 hPa | 0 mm | - | 0 W/m² | - |
| 1778145426 | -2.22° C | 85% | 1295.7 hPa | 0 mm | - | 0 W/m² | - |
| 1778145122 | -1.67° C | 82% | 1295.7 hPa | 0 mm | - | 0 W/m² | - |
| 1778144817 | -2.22° C | 84% | 1295.8 hPa | 0 mm | - | 0 W/m² | - |
| 1778144515 | -2.22° C | 86% | 1295.7 hPa | 0 mm | - | 0 W/m² | - |
| 1778144212 | -2.22° C | 87% | 1296 hPa | 0 mm | - | 0 W/m² | - |
| 1778143908 | -1.67° C | 79% | 1295.9 hPa | 0 mm | - | 0 W/m² | - |
| 1778143605 | -2.22° C | 84% | 1296 hPa | 0 mm | - | 0 W/m² | - |
| 1778143297 | -2.22° C | 82% | 1295.9 hPa | 0 mm | - | 0 W/m² | - |
| 1778142993 | -3.33° C | 89% | 1296.2 hPa | 0 mm | - | 0 W/m² | - |
| 1778142690 | -2.78° C | 87% | 1295.8 hPa | 0 mm | - | 0 W/m² | - |
| 1778142386 | -2.78° C | 87% | 1295.9 hPa | 0 mm | - | 0 W/m² | - |
| 1778142082 | -3.33° C | 94% | 1296 hPa | 0 mm | - | 0 W/m² | - |
| 1778141779 | -3.89° C | 95% | 1296 hPa | 0 mm | - | 0 W/m² | - |
| 1778141475 | -4.44° C | 96% | 1295.8 hPa | 0 mm | - | 0 W/m² | - |
| 1778141172 | -4.44° C | 96% | 1296 hPa | 0 mm | - | 0 W/m² | - |
| 1778140868 | -4.44° C | 96% | 1296.2 hPa | 0 mm | - | 0 W/m² | - |
| 1778140563 | -4.44° C | 96% | 1296.2 hPa | 0 mm | - | 0 W/m² | - |
| 1778140259 | -4.44° C | 96% | 1296.3 hPa | 0 mm | - | 0 W/m² | - |
| 1778139957 | -4.44° C | 96% | 1296.3 hPa | 0 mm | - | 0 W/m² | - |
| 1778139655 | -4.44° C | 96% | 1296 hPa | 0 mm | - | 0 W/m² | - |
| 1778139350 | -3.89° C | 96% | 1296.4 hPa | 0 mm | - | 0 W/m² | - |
| 1778139047 | -4.44° C | 96% | 1296.3 hPa | 0 mm | - | 0 W/m² | - |
| 1778138745 | -5° C | 96% | 1296.5 hPa | 0 mm | - | 0 W/m² | - |
| 1778138442 | -4.44° C | 96% | 1296.5 hPa | 0 mm | - | 0 W/m² | - |
* Rain latest hour (hover to see other rain measurements)
** Current wind speed in m/s (hover to see current wind gust speed)